createdAt,value
2023-04-20T00:02:36.952Z,7.37
2023-04-20T00:08:38.955Z,10.37
2023-04-20T00:14:40.926Z,8.30
2023-04-20T00:20:42.791Z,13.10
2023-04-20T00:26:44.717Z,7.73
2023-04-20T00:32:46.631Z,8.70
2023-04-20T00:38:48.626Z,6.17
2023-04-20T00:44:50.996Z,4.60
2023-04-20T00:50:53.084Z,4.00
2023-04-20T00:56:57.940Z,4.30
2023-04-20T01:03:00.222Z,3.73
2023-04-20T01:09:02.313Z,3.67
2023-04-20T01:15:06.038Z,2.87
2023-04-20T01:21:08.684Z,2.17
2023-04-20T01:27:10.555Z,1.83
2023-04-20T01:33:12.410Z,2.50
2023-04-20T01:39:14.394Z,2.37
2023-04-20T01:45:16.360Z,3.87
2023-04-20T01:51:18.227Z,2.30
2023-04-20T01:57:20.181Z,2.30
2023-04-20T02:03:22.244Z,4.07
2023-04-20T02:09:24.404Z,2.40
2023-04-20T02:15:26.317Z,2.93
2023-04-20T02:21:28.251Z,2.37
2023-04-20T02:27:30.718Z,2.10
2023-04-20T02:33:32.611Z,1.73
2023-04-20T02:39:34.483Z,2.97
2023-04-20T02:45:36.907Z,2.40
2023-04-20T02:51:38.788Z,2.57
2023-04-20T02:57:40.669Z,2.23
2023-04-20T03:03:42.646Z,2.50
2023-04-20T03:09:44.787Z,2.90
2023-04-20T03:15:46.758Z,3.57
2023-04-20T03:21:48.706Z,2.97
2023-04-20T03:27:50.565Z,2.23
2023-04-20T03:33:52.446Z,2.90
2023-04-20T03:39:54.327Z,3.37
2023-04-20T03:45:56.275Z,2.20
2023-04-20T03:51:58.164Z,2.23
2023-04-20T03:58:00.044Z,2.53
2023-04-20T04:04:02.144Z,2.87
2023-04-20T04:10:05.883Z,3.87
2023-04-20T04:16:07.868Z,2.17
2023-04-20T04:22:09.998Z,3.40
2023-04-20T04:28:12.550Z,2.50
2023-04-20T04:34:14.457Z,2.20
2023-04-20T04:40:16.463Z,2.10
2023-04-20T04:46:18.711Z,2.00
2023-04-20T04:52:21.693Z,2.10
2023-04-20T04:58:23.641Z,2.70
2023-04-20T05:04:25.610Z,2.90
2023-04-20T05:10:27.874Z,3.53
2023-04-20T05:16:29.870Z,3.50
2023-04-20T05:22:31.823Z,3.93
2023-04-20T05:28:34.788Z,5.37
2023-04-20T05:34:36.683Z,6.30
2023-04-20T05:40:38.684Z,5.10
2023-04-20T05:46:40.775Z,3.30
2023-04-20T05:52:42.636Z,3.90
2023-04-20T05:58:44.806Z,4.33
2023-04-20T06:04:46.840Z,2.70
2023-04-20T06:10:48.900Z,3.00
2023-04-20T06:16:50.876Z,4.20
2023-04-20T06:22:52.997Z,2.40
2023-04-20T06:28:54.889Z,2.57
2023-04-20T06:34:56.788Z,3.07
2023-04-20T06:41:01.989Z,1.80
2023-04-20T06:47:04.105Z,1.93
2023-04-20T06:53:06.336Z,2.20
2023-04-20T06:59:08.248Z,1.83
2023-04-20T07:05:11.405Z,1.70
2023-04-20T07:11:13.469Z,2.07
2023-04-20T07:17:19.416Z,1.60
2023-04-20T07:23:21.420Z,1.30
2023-04-20T07:29:23.340Z,1.60
2023-04-20T07:35:25.516Z,2.07
2023-04-20T07:41:27.482Z,2.17
2023-04-20T07:47:29.739Z,1.40
2023-04-20T07:53:31.772Z,2.63
2023-04-20T07:59:33.712Z,2.50
2023-04-20T08:05:38.659Z,3.70
2023-04-20T08:11:41.113Z,2.50
2023-04-20T08:17:43.128Z,3.00
2023-04-20T08:23:45.157Z,3.23
2023-04-20T08:29:47.053Z,3.80
2023-04-20T08:35:54.461Z,3.77
2023-04-20T08:41:57.379Z,5.20
2023-04-20T08:48:03.051Z,4.67
2023-04-20T08:54:06.580Z,3.27
2023-04-20T09:00:13.885Z,3.77
2023-04-20T09:06:18.509Z,3.87
2023-04-20T09:12:22.553Z,3.20
2023-04-20T09:18:24.855Z,3.80
2023-04-20T09:24:35.225Z,5.07
2023-04-20T09:30:48.988Z,4.07
2023-04-20T09:36:55.494Z,4.10
2023-04-20T09:43:04.058Z,3.00
2023-04-20T09:49:08.603Z,5.97
2023-04-20T09:55:11.134Z,3.63
2023-04-20T10:01:13.619Z,4.53
2023-04-20T10:07:27.700Z,4.97
2023-04-20T10:13:34.107Z,2.80
2023-04-20T10:19:45.996Z,3.63
2023-04-20T10:26:00.883Z,3.10
2023-04-20T10:32:03.354Z,2.80
2023-04-20T10:38:05.392Z,2.50
2023-04-20T10:44:08.956Z,2.60
2023-04-20T10:50:15.954Z,3.70
2023-04-20T10:56:17.871Z,2.20
2023-04-20T11:02:19.919Z,2.80
2023-04-20T11:08:21.922Z,1.80
2023-04-20T11:14:24.221Z,3.40
2023-04-20T11:20:26.121Z,2.03
2023-04-20T11:26:38.262Z,4.00
2023-04-20T11:32:40.395Z,1.70
2023-04-20T11:38:42.454Z,1.70
2023-04-20T11:44:44.334Z,2.00
2023-04-20T11:50:46.294Z,1.60
2023-04-20T11:56:48.657Z,1.97
2023-04-20T12:02:51.793Z,1.87
2023-04-20T12:08:53.724Z,3.00
2023-04-20T12:14:55.818Z,1.50
2023-04-20T12:20:57.682Z,1.70
2023-04-20T12:26:59.613Z,1.67
2023-04-20T12:33:03.516Z,2.00
2023-04-20T12:39:05.635Z,1.80
2023-04-20T12:45:08.394Z,1.97
2023-04-20T12:51:10.464Z,1.77
2023-04-20T12:57:12.385Z,3.50
2023-04-20T13:03:14.395Z,2.07
2023-04-20T13:09:16.454Z,2.27
2023-04-20T13:15:31.916Z,3.20
2023-04-20T13:21:39.836Z,3.37
2023-04-20T13:27:41.726Z,4.50
2023-04-20T13:33:43.645Z,3.60
2023-04-20T13:39:45.596Z,4.27
2023-04-20T13:45:47.600Z,6.90
2023-04-20T13:51:50.293Z,5.43
2023-04-20T13:57:52.420Z,5.20
2023-04-20T14:03:55.725Z,5.10
2023-04-20T14:09:59.835Z,4.40
2023-04-20T14:16:01.789Z,5.17
2023-04-20T14:22:03.726Z,4.83
2023-04-20T14:28:05.700Z,6.03
2023-04-20T14:34:09.321Z,11.53
2023-04-20T14:40:11.950Z,7.23
2023-04-20T14:46:14.017Z,6.57
2023-04-20T14:52:15.963Z,7.17
2023-04-20T14:58:19.432Z,7.93
2023-04-20T15:04:21.637Z,7.43
2023-04-20T15:10:23.914Z,6.77
2023-04-20T15:16:25.825Z,7.47
2023-04-20T15:22:27.750Z,7.20
2023-04-20T15:28:29.652Z,6.93
2023-04-20T15:34:31.580Z,9.13
2023-04-20T15:40:33.553Z,9.30
2023-04-20T15:46:37.940Z,10.23
2023-04-20T15:52:39.990Z,10.50
2023-04-20T15:58:41.927Z,12.20
2023-04-20T16:04:43.945Z,10.60
2023-04-20T16:10:45.946Z,11.03
2023-04-20T16:16:47.845Z,11.73
2023-04-20T16:22:49.727Z,10.70
2023-04-20T16:28:52.676Z,10.87
2023-04-20T16:34:54.573Z,9.30
2023-04-20T16:40:56.499Z,10.63
2023-04-20T16:46:58.502Z,10.73
2023-04-20T16:53:00.713Z,7.10
2023-04-20T16:59:03.058Z,8.17
2023-04-20T17:05:07.197Z,11.60
2023-04-20T17:11:09.114Z,15.77
2023-04-20T17:17:11.003Z,23.90
2023-04-20T17:23:12.903Z,50.60
2023-04-20T17:29:14.882Z,15.87
2023-04-20T17:35:16.888Z,18.37
2023-04-20T17:41:18.799Z,17.30
2023-04-20T17:47:20.748Z,17.17
2023-04-20T17:53:22.765Z,17.10
2023-04-20T17:59:24.699Z,19.10
2023-04-20T18:05:27.195Z,18.90
2023-04-20T18:11:29.163Z,20.87
2023-04-20T18:17:31.123Z,23.77
2023-04-20T18:23:33.283Z,20.00
2023-04-20T18:29:35.449Z,18.40
2023-04-20T18:35:37.375Z,19.00
2023-04-20T18:41:39.304Z,21.00
2023-04-20T18:47:41.266Z,17.63
2023-04-20T18:53:43.268Z,20.53
2023-04-20T18:59:45.312Z,19.13
2023-04-20T19:05:47.304Z,19.10
2023-04-20T19:11:50.804Z,22.47
2023-04-20T19:17:55.344Z,25.73
2023-04-20T19:23:57.285Z,25.00
2023-04-20T19:29:59.206Z,18.27
2023-04-20T19:36:03.311Z,24.20
2023-04-20T19:42:05.244Z,18.37
2023-04-20T19:48:07.342Z,22.20
2023-04-20T19:54:09.316Z,22.53
2023-04-20T20:00:12.000Z,19.80
2023-04-20T20:06:14.012Z,25.90
2023-04-20T20:12:16.464Z,21.73
2023-04-20T20:18:18.854Z,25.80
2023-04-20T20:24:23.068Z,23.80
2023-04-20T20:30:25.005Z,22.13
2023-04-20T20:36:27.872Z,20.27
2023-04-20T20:42:30.389Z,25.43
2023-04-20T20:48:32.324Z,24.70
2023-04-20T20:54:34.267Z,22.27
2023-04-20T21:00:36.268Z,21.40
2023-04-20T21:06:38.216Z,19.90
2023-04-20T21:12:40.420Z,17.10
2023-04-20T21:18:42.350Z,20.37
2023-04-20T21:24:44.244Z,23.37
2023-04-20T21:30:46.171Z,24.53
2023-04-20T21:36:48.600Z,27.23
2023-04-20T21:42:50.500Z,24.90
2023-04-20T21:48:52.452Z,22.43
2023-04-20T21:54:54.344Z,28.00
2023-04-20T22:00:56.296Z,21.87
2023-04-20T22:06:58.194Z,26.50
2023-04-20T22:13:00.131Z,19.43
2023-04-20T22:19:02.418Z,25.07
2023-04-20T22:25:05.799Z,26.10
2023-04-20T22:31:07.818Z,20.80
2023-04-20T22:37:10.438Z,23.70
2023-04-20T22:43:12.404Z,25.00
2023-04-20T22:49:15.021Z,24.93
2023-04-20T22:55:16.960Z,23.00
2023-04-20T23:01:18.883Z,25.33
2023-04-20T23:07:21.240Z,25.23
2023-04-20T23:13:26.077Z,29.53
2023-04-20T23:19:28.313Z,27.67
2023-04-20T23:25:30.208Z,20.63
2023-04-20T23:31:32.086Z,23.93
2023-04-20T23:37:33.969Z,20.60
2023-04-20T23:43:37.157Z,17.30
2023-04-20T23:49:39.069Z,21.83
2023-04-20T23:55:40.944Z,20.13
